createdAt,value
2023-05-19T00:00:08.976Z,12.53
2023-05-19T00:01:08.942Z,12.51
2023-05-19T00:02:08.957Z,12.50
2023-05-19T00:03:09.192Z,12.50
2023-05-19T00:04:08.930Z,12.48
2023-05-19T00:05:08.891Z,12.47
2023-05-19T00:06:09.030Z,12.44
2023-05-19T00:07:08.875Z,12.46
2023-05-19T00:08:08.887Z,12.47
2023-05-19T00:09:08.870Z,12.48
2023-05-19T00:10:08.852Z,12.48
2023-05-19T00:11:08.827Z,12.47
2023-05-19T00:12:08.826Z,12.47
2023-05-19T00:13:08.831Z,12.51
2023-05-19T00:14:08.820Z,12.51
2023-05-19T00:15:08.809Z,12.48
2023-05-19T00:16:08.899Z,12.48
2023-05-19T00:17:08.789Z,12.48
2023-05-19T00:18:08.857Z,12.46
2023-05-19T00:19:08.802Z,12.47
2023-05-19T00:20:08.762Z,12.50
2023-05-19T00:21:08.734Z,12.53
2023-05-19T00:22:08.717Z,12.54
2023-05-19T00:23:08.730Z,12.54
2023-05-19T00:24:08.689Z,12.55
2023-05-19T00:25:08.682Z,12.54
2023-05-19T00:26:08.691Z,12.54
2023-05-19T00:27:08.686Z,12.54
2023-05-19T00:28:08.685Z,12.50
2023-05-19T00:29:08.645Z,12.51
2023-05-19T00:30:08.638Z,12.53
2023-05-19T00:31:08.611Z,12.51
2023-05-19T00:32:08.700Z,12.48
2023-05-19T00:33:08.679Z,12.48
2023-05-19T00:34:08.607Z,12.47
2023-05-19T00:35:08.577Z,12.50
2023-05-19T00:36:08.564Z,12.48
2023-05-19T00:37:08.576Z,12.46
2023-05-19T00:38:08.535Z,12.43
2023-05-19T00:39:08.551Z,12.40
2023-05-19T00:40:08.520Z,12.35
2023-05-19T00:41:08.507Z,12.40
2023-05-19T00:42:08.516Z,12.35
2023-05-19T00:43:08.498Z,12.32
2023-05-19T00:44:08.474Z,12.29
2023-05-19T00:45:08.480Z,12.29
2023-05-19T00:46:08.501Z,12.32
2023-05-19T00:47:08.679Z,12.30
2023-05-19T00:48:08.471Z,12.28
2023-05-19T00:49:08.433Z,12.25
2023-05-19T00:50:08.425Z,12.25
2023-05-19T00:51:08.428Z,12.28
2023-05-19T00:52:08.410Z,12.28
2023-05-19T00:53:08.404Z,12.25
2023-05-19T00:54:08.382Z,12.22
2023-05-19T00:55:08.370Z,12.18
2023-05-19T00:56:08.369Z,12.15
2023-05-19T00:57:08.333Z,12.14
2023-05-19T00:58:08.325Z,12.15
2023-05-19T00:59:08.314Z,12.15
2023-05-19T01:00:08.345Z,12.13
2023-05-19T01:01:08.339Z,12.13
2023-05-19T01:02:08.288Z,12.10
2023-05-19T01:03:08.358Z,12.10
2023-05-19T01:04:08.338Z,12.08
2023-05-19T01:05:08.306Z,12.08
2023-05-19T01:06:08.399Z,12.07
2023-05-19T01:07:08.245Z,12.11
2023-05-19T01:08:08.231Z,12.14
2023-05-19T01:09:08.221Z,12.13
2023-05-19T01:10:08.223Z,12.11
2023-05-19T01:11:08.272Z,12.10
2023-05-19T01:12:08.181Z,12.08
2023-05-19T01:13:08.184Z,12.07
2023-05-19T01:14:08.174Z,12.05
2023-05-19T01:15:08.163Z,12.04
2023-05-19T01:16:08.161Z,12.00
2023-05-19T01:17:08.124Z,11.97
2023-05-19T01:18:08.195Z,11.96
2023-05-19T01:19:08.183Z,11.93
2023-05-19T01:20:08.121Z,11.96
2023-05-19T01:21:08.082Z,11.96
2023-05-19T01:22:08.078Z,11.95
2023-05-19T01:23:08.062Z,11.91
2023-05-19T01:24:08.072Z,11.88
2023-05-19T01:25:08.050Z,11.91
2023-05-19T01:26:08.030Z,11.91
2023-05-19T01:27:08.017Z,11.88
2023-05-19T01:28:08.015Z,11.85
2023-05-19T01:29:08.015Z,11.82
2023-05-19T01:30:08.020Z,11.80
2023-05-19T01:31:07.985Z,11.79
2023-05-19T01:32:08.177Z,11.79
2023-05-19T01:33:08.120Z,11.76
2023-05-19T01:34:07.941Z,11.73
2023-05-19T01:35:07.930Z,11.70
2023-05-19T01:36:07.925Z,11.69
2023-05-19T01:37:07.963Z,11.69
2023-05-19T01:38:07.929Z,11.67
2023-05-19T01:39:07.897Z,11.64
2023-05-19T01:40:07.921Z,11.62
2023-05-19T01:41:07.867Z,11.58
2023-05-19T01:42:07.865Z,11.58
2023-05-19T01:43:07.884Z,11.56
2023-05-19T01:44:07.854Z,11.54
2023-05-19T01:45:07.831Z,11.49
2023-05-19T01:46:07.874Z,11.48
2023-05-19T01:47:07.858Z,11.43
2023-05-19T01:48:10.675Z,11.43
2023-05-19T01:49:07.824Z,11.40
2023-05-19T01:50:07.776Z,11.38
2023-05-19T01:51:07.778Z,11.37
2023-05-19T01:52:07.774Z,11.36
2023-05-19T01:53:07.768Z,11.36
2023-05-19T01:54:07.738Z,11.34
2023-05-19T01:55:07.739Z,11.31
2023-05-19T01:56:07.720Z,11.28
2023-05-19T01:57:07.734Z,11.27
2023-05-19T01:58:07.718Z,11.28
2023-05-19T01:59:07.691Z,11.27
2023-05-19T02:00:07.678Z,11.27
2023-05-19T02:01:07.732Z,11.25
2023-05-19T02:02:07.670Z,11.23
2023-05-19T02:03:07.765Z,11.27
2023-05-19T02:04:07.668Z,11.23
2023-05-19T02:05:07.626Z,11.27
2023-05-19T02:06:07.655Z,11.22
2023-05-19T02:07:07.641Z,11.20
2023-05-19T02:08:07.587Z,11.19
2023-05-19T02:09:07.593Z,11.16
2023-05-19T02:10:07.595Z,11.16
2023-05-19T02:11:07.623Z,11.16
2023-05-19T02:12:07.563Z,11.15
2023-05-19T02:13:07.540Z,11.12
2023-05-19T02:14:07.525Z,11.13
2023-05-19T02:15:07.520Z,11.09
2023-05-19T02:16:07.623Z,11.05
2023-05-19T02:17:07.508Z,11.01
2023-05-19T02:18:07.484Z,10.98
2023-05-19T02:19:08.339Z,10.98
2023-05-19T02:20:07.501Z,10.97
2023-05-19T02:21:07.497Z,10.97
2023-05-19T02:22:07.438Z,10.94
2023-05-19T02:23:07.475Z,10.93
2023-05-19T02:24:07.446Z,10.91
2023-05-19T02:25:07.430Z,10.87
2023-05-19T02:26:07.429Z,10.86
2023-05-19T02:27:07.394Z,10.83
2023-05-19T02:28:07.387Z,10.79
2023-05-19T02:29:07.366Z,10.80
2023-05-19T02:30:07.421Z,10.82
2023-05-19T02:31:07.351Z,10.82
2023-05-19T02:32:07.420Z,10.82
2023-05-19T02:33:07.370Z,10.79
2023-05-19T02:34:07.408Z,10.78
2023-05-19T02:35:07.338Z,10.78
2023-05-19T02:36:07.324Z,10.76
2023-05-19T02:37:07.279Z,10.75
2023-05-19T02:38:07.274Z,10.72
2023-05-19T02:39:07.281Z,10.67
2023-05-19T02:40:07.257Z,10.64
2023-05-19T02:41:07.252Z,10.62
2023-05-19T02:42:07.242Z,10.65
2023-05-19T02:43:07.243Z,10.65
2023-05-19T02:44:07.220Z,10.67
2023-05-19T02:45:07.205Z,10.65
2023-05-19T02:46:07.273Z,10.62
2023-05-19T02:47:07.196Z,10.61
2023-05-19T02:48:07.257Z,10.57
2023-05-19T02:49:07.206Z,10.60
2023-05-19T02:50:07.161Z,10.60
2023-05-19T02:51:07.150Z,10.61
2023-05-19T02:52:07.196Z,10.61
2023-05-19T02:53:07.183Z,10.61
2023-05-19T02:54:07.101Z,10.60
2023-05-19T02:55:07.091Z,10.58
2023-05-19T02:56:07.081Z,10.55
2023-05-19T02:57:07.092Z,10.55
2023-05-19T02:58:07.078Z,10.49
2023-05-19T02:59:07.054Z,10.48
2023-05-19T03:00:07.058Z,10.43
2023-05-19T03:01:07.038Z,10.41
2023-05-19T03:02:07.127Z,10.45
2023-05-19T03:03:07.143Z,10.46
2023-05-19T03:04:07.099Z,10.45
2023-05-19T03:05:07.000Z,10.43
2023-05-19T03:06:06.969Z,10.41
2023-05-19T03:07:06.980Z,10.39
2023-05-19T03:08:06.949Z,10.38
2023-05-19T03:09:06.950Z,10.35
2023-05-19T03:10:06.933Z,10.34
2023-05-19T03:11:06.930Z,10.34
2023-05-19T03:12:06.927Z,10.34
2023-05-19T03:13:06.910Z,10.31
2023-05-19T03:14:06.893Z,10.31
2023-05-19T03:15:06.898Z,10.28
2023-05-19T03:16:06.912Z,10.26
2023-05-19T03:17:06.902Z,10.30
2023-05-19T03:18:06.883Z,10.28
2023-05-19T03:19:06.865Z,10.28
2023-05-19T03:20:06.835Z,10.26
2023-05-19T03:21:06.840Z,10.24
2023-05-19T03:22:06.806Z,10.28
2023-05-19T03:23:06.818Z,10.28
2023-05-19T03:24:06.816Z,10.24
2023-05-19T03:25:06.781Z,10.24
2023-05-19T03:26:06.786Z,10.23
2023-05-19T03:27:06.798Z,10.21
2023-05-19T03:28:06.748Z,10.18
2023-05-19T03:29:06.738Z,10.17
2023-05-19T03:30:06.909Z,10.16
2023-05-19T03:31:06.685Z,10.16
2023-05-19T03:32:06.700Z,10.16
2023-05-19T03:33:06.743Z,10.12
2023-05-19T03:34:06.664Z,10.12
2023-05-19T03:35:06.702Z,10.09
2023-05-19T03:36:06.670Z,10.06
2023-05-19T03:37:06.656Z,10.06
2023-05-19T03:38:06.648Z,10.09
2023-05-19T03:39:06.640Z,10.08
2023-05-19T03:40:06.644Z,10.08
2023-05-19T03:41:06.611Z,10.08
2023-05-19T03:42:06.603Z,10.09
2023-05-19T03:43:06.603Z,10.09
2023-05-19T03:44:06.601Z,10.06
2023-05-19T03:45:06.550Z,10.05
2023-05-19T03:46:06.539Z,10.08
2023-05-19T03:47:06.558Z,10.14
2023-05-19T03:48:06.564Z,10.10
2023-05-19T03:49:06.552Z,10.08
2023-05-19T03:50:06.519Z,10.05
2023-05-19T03:51:06.539Z,10.08
2023-05-19T03:52:06.440Z,10.10
2023-05-19T03:53:06.432Z,10.06
2023-05-19T03:54:06.439Z,10.08
2023-05-19T03:55:06.409Z,10.08
2023-05-19T03:56:06.397Z,10.06
2023-05-19T03:57:06.408Z,10.08
2023-05-19T03:58:06.408Z,10.06
2023-05-19T03:59:06.391Z,10.10
2023-05-19T04:00:06.405Z,10.09
2023-05-19T04:01:06.403Z,10.09
2023-05-19T04:02:07.753Z,10.05
2023-05-19T04:03:06.532Z,10.03
2023-05-19T04:04:06.384Z,9.99
2023-05-19T04:05:06.357Z,9.99
2023-05-19T04:06:06.351Z,10.02
2023-05-19T04:07:06.337Z,9.96
2023-05-19T04:08:06.312Z,9.96
2023-05-19T04:09:06.262Z,9.96
2023-05-19T04:10:06.244Z,10.01
2023-05-19T04:11:06.245Z,9.99
2023-05-19T04:12:06.262Z,9.98
2023-05-19T04:13:06.238Z,9.94
2023-05-19T04:14:06.207Z,9.94
2023-05-19T04:15:06.214Z,9.91
2023-05-19T04:16:06.253Z,9.98
2023-05-19T04:17:06.194Z,9.98
2023-05-19T04:18:06.194Z,9.99
2023-05-19T04:19:06.253Z,10.02
2023-05-19T04:20:06.148Z,10.03
2023-05-19T04:21:06.136Z,10.01
2023-05-19T04:22:06.172Z,10.01
2023-05-19T04:23:06.118Z,10.08
2023-05-19T04:24:06.120Z,10.06
2023-05-19T04:25:06.097Z,10.05
2023-05-19T04:26:06.099Z,10.05
2023-05-19T04:27:06.171Z,10.03
2023-05-19T04:28:06.056Z,10.02
2023-05-19T04:29:06.056Z,9.99
2023-05-19T04:30:06.045Z,9.98
2023-05-19T04:31:06.079Z,9.98
2023-05-19T04:32:06.022Z,9.96
2023-05-19T04:33:06.018Z,9.94
2023-05-19T04:34:06.008Z,9.99
2023-05-19T04:35:05.990Z,9.96
2023-05-19T04:36:05.993Z,9.98
2023-05-19T04:37:05.986Z,9.96
2023-05-19T04:38:05.957Z,9.94
2023-05-19T04:39:05.943Z,9.98
2023-05-19T04:40:05.953Z,10.03
2023-05-19T04:41:05.937Z,10.06
2023-05-19T04:42:05.915Z,10.12
2023-05-19T04:43:05.896Z,10.17
2023-05-19T04:44:05.886Z,10.17
2023-05-19T04:45:05.889Z,10.21
2023-05-19T04:46:05.924Z,10.21
2023-05-19T04:47:05.879Z,10.20
2023-05-19T04:48:05.896Z,10.23
2023-05-19T04:49:05.832Z,10.23
2023-05-19T04:50:05.867Z,10.28
2023-05-19T04:51:05.821Z,10.28
2023-05-19T04:52:05.822Z,10.26
2023-05-19T04:53:05.792Z,10.30
2023-05-19T04:54:05.806Z,10.30
2023-05-19T04:55:05.785Z,10.31
2023-05-19T04:56:05.772Z,10.35
2023-05-19T04:57:05.755Z,10.38
2023-05-19T04:58:05.752Z,10.38
2023-05-19T04:59:05.742Z,10.35
2023-05-19T05:00:05.726Z,10.38
2023-05-19T05:01:05.728Z,10.39
2023-05-19T05:02:05.784Z,10.38
2023-05-19T05:03:05.790Z,10.38
2023-05-19T05:04:05.809Z,10.43
2023-05-19T05:05:05.665Z,10.46
2023-05-19T05:06:05.655Z,10.48
2023-05-19T05:07:05.644Z,10.49
2023-05-19T05:08:05.917Z,10.52
2023-05-19T05:09:05.635Z,10.54
2023-05-19T05:10:05.621Z,10.55
2023-05-19T05:11:05.612Z,10.55
2023-05-19T05:12:05.591Z,10.58
2023-05-19T05:13:05.599Z,10.61
2023-05-19T05:14:05.567Z,10.65
2023-05-19T05:15:05.563Z,10.67
2023-05-19T05:16:05.558Z,10.73
2023-05-19T05:17:05.524Z,10.75
2023-05-19T05:18:05.575Z,10.78
2023-05-19T05:19:05.558Z,10.79
2023-05-19T05:20:05.513Z,10.80
2023-05-19T05:21:05.492Z,10.80
2023-05-19T05:22:05.507Z,10.83
2023-05-19T05:23:05.493Z,10.85
2023-05-19T05:24:05.461Z,10.86
2023-05-19T05:25:05.472Z,10.86
2023-05-19T05:26:05.437Z,10.87
2023-05-19T05:27:05.442Z,10.91
2023-05-19T05:28:05.500Z,10.93
2023-05-19T05:29:05.406Z,10.93
2023-05-19T05:30:05.390Z,10.95
2023-05-19T05:31:05.380Z,10.97
2023-05-19T05:32:05.416Z,11.00
2023-05-19T05:33:05.485Z,11.00
2023-05-19T05:34:05.367Z,11.01
2023-05-19T05:35:05.343Z,11.01
2023-05-19T05:36:05.350Z,11.01
2023-05-19T05:37:05.337Z,11.03
2023-05-19T05:38:05.332Z,11.04
2023-05-19T05:39:05.303Z,11.08
2023-05-19T05:40:05.310Z,11.09
2023-05-19T05:41:05.309Z,11.13
2023-05-19T05:42:05.271Z,11.13
2023-05-19T05:43:05.256Z,11.16
2023-05-19T05:44:05.242Z,11.18
2023-05-19T05:45:05.233Z,11.18
2023-05-19T05:46:05.347Z,11.20
2023-05-19T05:47:05.299Z,11.23
2023-05-19T05:48:05.247Z,11.23
2023-05-19T05:49:05.304Z,11.25
2023-05-19T05:50:05.320Z,11.27
2023-05-19T05:51:05.279Z,11.27
2023-05-19T05:52:06.815Z,11.28
2023-05-19T05:53:05.150Z,11.31
2023-05-19T05:54:05.164Z,11.33
2023-05-19T05:55:05.150Z,11.37
2023-05-19T05:56:05.126Z,11.40
2023-05-19T05:57:05.110Z,11.43
2023-05-19T05:58:05.103Z,11.46
2023-05-19T05:59:05.118Z,11.49
2023-05-19T06:00:05.126Z,11.51
2023-05-19T06:01:05.074Z,11.54
2023-05-19T06:02:05.147Z,11.54
2023-05-19T06:03:05.209Z,11.55
2023-05-19T06:04:05.062Z,11.59
2023-05-19T06:05:05.056Z,11.59
2023-05-19T06:06:05.192Z,11.62
2023-05-19T06:07:05.005Z,11.64
2023-05-19T06:08:05.024Z,11.67
2023-05-19T06:09:05.001Z,11.67
2023-05-19T06:10:04.984Z,11.71
2023-05-19T06:11:04.978Z,11.73
2023-05-19T06:12:04.970Z,11.76
2023-05-19T06:13:04.953Z,11.76
2023-05-19T06:14:04.968Z,11.76
2023-05-19T06:15:04.932Z,11.77
2023-05-19T06:16:04.957Z,11.79
2023-05-19T06:17:04.903Z,11.82
2023-05-19T06:18:04.945Z,11.85
2023-05-19T06:19:04.955Z,11.87
2023-05-19T06:20:04.871Z,11.88
2023-05-19T06:21:04.869Z,11.89
2023-05-19T06:22:04.860Z,11.93
2023-05-19T06:23:04.865Z,11.93
2023-05-19T06:24:04.848Z,11.95
2023-05-19T06:25:04.816Z,11.95
2023-05-19T06:26:04.825Z,11.95
2023-05-19T06:27:04.794Z,11.97
2023-05-19T06:28:04.809Z,12.00
2023-05-19T06:29:04.795Z,12.05
2023-05-19T06:30:04.772Z,12.07
2023-05-19T06:31:04.789Z,12.08
2023-05-19T06:32:04.773Z,12.11
2023-05-19T06:33:04.807Z,12.14
2023-05-19T06:34:04.736Z,12.15
2023-05-19T06:35:04.755Z,12.18
2023-05-19T06:36:04.786Z,12.23
2023-05-19T06:37:04.714Z,12.23
2023-05-19T06:38:04.692Z,12.26
2023-05-19T06:39:04.681Z,12.28
2023-05-19T06:40:04.669Z,12.32
2023-05-19T06:41:04.657Z,12.38
2023-05-19T06:42:04.685Z,12.41
2023-05-19T06:43:04.631Z,12.43
2023-05-19T06:44:04.647Z,12.48
2023-05-19T06:45:04.611Z,12.48
2023-05-19T06:46:04.614Z,12.53
2023-05-19T06:47:04.720Z,12.54
2023-05-19T06:48:04.622Z,12.59
2023-05-19T06:49:04.572Z,12.62
2023-05-19T06:50:04.563Z,12.63
2023-05-19T06:51:04.576Z,12.66
2023-05-19T06:52:04.545Z,12.71
2023-05-19T06:53:04.536Z,12.72
2023-05-19T06:54:04.518Z,12.76
2023-05-19T06:55:04.505Z,12.77
2023-05-19T06:56:04.521Z,12.81
2023-05-19T06:57:04.484Z,12.83
2023-05-19T06:58:04.472Z,12.87
2023-05-19T06:59:04.476Z,12.90
2023-05-19T07:00:04.489Z,12.91
2023-05-19T07:01:04.450Z,12.95
2023-05-19T07:02:04.456Z,12.98
2023-05-19T07:03:04.486Z,12.99
2023-05-19T07:04:04.546Z,13.02
2023-05-19T07:05:04.414Z,13.06
2023-05-19T07:06:07.089Z,13.08
2023-05-19T07:07:04.386Z,13.13
2023-05-19T07:08:04.373Z,13.16
2023-05-19T07:09:04.362Z,13.20
2023-05-19T07:10:04.371Z,13.23
2023-05-19T07:11:04.336Z,13.27
2023-05-19T07:12:04.327Z,13.30
2023-05-19T07:13:04.314Z,13.35
2023-05-19T07:14:04.327Z,13.39
2023-05-19T07:15:04.327Z,13.42
2023-05-19T07:16:04.307Z,13.46
2023-05-19T07:17:04.265Z,13.51
2023-05-19T07:18:04.291Z,13.54
2023-05-19T07:19:04.289Z,13.58
2023-05-19T07:20:04.236Z,13.63
2023-05-19T07:21:04.236Z,13.67
2023-05-19T07:22:04.227Z,13.72
2023-05-19T07:23:04.205Z,13.76
2023-05-19T07:24:04.216Z,13.79
2023-05-19T07:25:04.178Z,13.85
2023-05-19T07:26:04.180Z,13.91
2023-05-19T07:27:04.178Z,13.97
2023-05-19T07:28:04.193Z,14.03
2023-05-19T07:29:04.167Z,14.08
2023-05-19T07:30:04.146Z,14.13
2023-05-19T07:31:04.130Z,14.16
2023-05-19T07:32:04.133Z,14.19
2023-05-19T07:33:04.170Z,14.26
2023-05-19T07:34:04.094Z,14.28
2023-05-19T07:35:04.086Z,14.33
2023-05-19T07:36:04.094Z,14.38
2023-05-19T07:37:04.057Z,14.41
2023-05-19T07:38:04.094Z,14.48
2023-05-19T07:39:04.049Z,14.51
2023-05-19T07:40:04.048Z,14.55
2023-05-19T07:41:04.020Z,14.59
2023-05-19T07:42:04.027Z,14.63
2023-05-19T07:43:04.011Z,14.67
2023-05-19T07:44:03.990Z,14.71
2023-05-19T07:45:03.966Z,14.78
2023-05-19T07:46:04.048Z,14.82
2023-05-19T07:47:03.965Z,14.87
2023-05-19T07:48:03.988Z,14.93
2023-05-19T07:49:03.937Z,14.99
2023-05-19T07:50:03.937Z,15.08
2023-05-19T07:51:03.970Z,15.15
2023-05-19T07:52:03.921Z,15.22
2023-05-19T07:53:03.888Z,15.27
2023-05-19T07:54:03.894Z,15.32
2023-05-19T07:55:03.871Z,15.41
2023-05-19T07:56:03.856Z,15.47
2023-05-19T07:57:03.869Z,15.52
2023-05-19T07:58:03.836Z,15.59
2023-05-19T07:59:03.830Z,15.66
2023-05-19T08:00:03.808Z,15.76
2023-05-19T08:01:03.830Z,15.80
2023-05-19T08:02:03.834Z,15.87
2023-05-19T08:03:03.835Z,15.93
2023-05-19T08:04:03.904Z,15.96
2023-05-19T08:05:03.756Z,16.03
2023-05-19T08:06:03.782Z,16.09
2023-05-19T08:07:03.747Z,16.14
2023-05-19T08:08:03.734Z,16.18
2023-05-19T08:09:03.721Z,16.25
2023-05-19T08:10:03.714Z,16.32
2023-05-19T08:11:03.724Z,16.36
2023-05-19T08:12:03.698Z,16.40
2023-05-19T08:13:03.674Z,16.44
2023-05-19T08:14:03.669Z,16.51
2023-05-19T08:15:03.701Z,16.57
2023-05-19T08:16:03.701Z,16.64
2023-05-19T08:17:03.628Z,16.70
2023-05-19T08:18:03.691Z,16.76
2023-05-19T08:19:03.660Z,16.82
2023-05-19T08:20:03.740Z,16.90
2023-05-19T08:21:03.587Z,16.95
2023-05-19T08:22:03.585Z,16.99
2023-05-19T08:23:03.577Z,17.07
2023-05-19T08:24:03.601Z,17.12
2023-05-19T08:25:03.591Z,17.17
2023-05-19T08:26:03.551Z,17.24
2023-05-19T08:27:03.543Z,17.25
2023-05-19T08:28:03.532Z,17.30
2023-05-19T08:29:03.526Z,17.37
2023-05-19T08:30:03.524Z,17.46
2023-05-19T08:31:03.507Z,17.50
2023-05-19T08:32:03.487Z,17.62
2023-05-19T08:33:03.487Z,17.71
2023-05-19T08:34:03.484Z,17.81
2023-05-19T08:35:03.459Z,17.93
2023-05-19T08:36:03.433Z,18.06
2023-05-19T08:37:03.422Z,18.20
2023-05-19T08:38:03.420Z,18.38
2023-05-19T08:39:03.420Z,18.57
2023-05-19T08:40:03.397Z,18.75
2023-05-19T08:41:03.390Z,18.91
2023-05-19T08:42:03.374Z,19.08
2023-05-19T08:43:03.399Z,19.23
2023-05-19T08:44:03.366Z,19.35
2023-05-19T08:45:03.336Z,19.44
2023-05-19T08:46:03.328Z,19.50
2023-05-19T08:47:03.507Z,19.53
2023-05-19T08:48:03.330Z,19.60
2023-05-19T08:49:03.297Z,19.70
2023-05-19T08:50:03.307Z,19.79
2023-05-19T08:51:03.275Z,19.86
2023-05-19T08:52:03.258Z,19.92
2023-05-19T08:53:03.281Z,19.99
2023-05-19T08:54:03.243Z,20.05
2023-05-19T08:55:03.238Z,20.08
2023-05-19T08:56:03.215Z,20.12
2023-05-19T08:57:03.233Z,20.17
2023-05-19T08:58:03.218Z,20.19
2023-05-19T08:59:03.183Z,20.19
2023-05-19T09:00:03.184Z,20.23
2023-05-19T09:01:03.198Z,20.27
2023-05-19T09:02:03.167Z,20.33
2023-05-19T09:03:17.363Z,20.39
2023-05-19T09:04:04.197Z,20.44
2023-05-19T09:05:03.291Z,20.50
2023-05-19T09:06:03.171Z,20.56
2023-05-19T09:07:03.131Z,20.61
2023-05-19T09:08:03.086Z,20.70
2023-05-19T09:09:03.087Z,20.80
2023-05-19T09:10:03.080Z,20.89
2023-05-19T09:11:03.089Z,20.95
2023-05-19T09:12:03.065Z,20.95
2023-05-19T09:13:03.053Z,20.92
2023-05-19T09:14:03.027Z,20.89
2023-05-19T09:15:03.042Z,20.83
2023-05-19T09:16:03.078Z,20.77
2023-05-19T09:17:03.079Z,20.71
2023-05-19T09:18:03.016Z,20.65
2023-05-19T09:19:03.005Z,20.63
2023-05-19T09:20:02.975Z,20.60
2023-05-19T09:21:03.361Z,20.60
2023-05-19T09:22:02.945Z,20.56
2023-05-19T09:23:02.944Z,20.50
2023-05-19T09:24:02.931Z,20.44
2023-05-19T09:25:02.926Z,20.37
2023-05-19T09:26:02.916Z,20.30
2023-05-19T09:27:02.916Z,20.26
2023-05-19T09:28:02.902Z,20.26
2023-05-19T09:29:02.895Z,20.26
2023-05-19T09:30:02.962Z,20.25
2023-05-19T09:31:03.881Z,20.18
2023-05-19T09:32:02.879Z,20.12
2023-05-19T09:33:02.863Z,20.08
2023-05-19T09:34:02.820Z,19.99
2023-05-19T09:35:02.827Z,19.97
2023-05-19T09:36:02.801Z,19.93
2023-05-19T09:37:02.790Z,19.87
2023-05-19T09:38:02.782Z,19.89
2023-05-19T09:39:02.766Z,19.89
2023-05-19T09:40:02.777Z,19.86
2023-05-19T09:41:02.757Z,19.82
2023-05-19T09:42:02.734Z,19.81
2023-05-19T09:43:02.745Z,19.78
2023-05-19T09:44:02.734Z,19.75
2023-05-19T09:45:02.824Z,19.72
2023-05-19T09:46:02.756Z,19.68
2023-05-19T09:47:02.690Z,19.68
2023-05-19T09:48:02.718Z,19.72
2023-05-19T09:49:02.695Z,19.77
2023-05-19T09:50:02.650Z,19.86
2023-05-19T09:51:02.705Z,19.93
2023-05-19T09:52:02.627Z,19.94
2023-05-19T09:53:02.621Z,19.99
2023-05-19T09:54:02.628Z,20.08
2023-05-19T09:55:02.619Z,20.18
2023-05-19T09:56:02.592Z,20.27
2023-05-19T09:57:02.611Z,20.37
2023-05-19T09:58:02.585Z,20.48
2023-05-19T09:59:02.607Z,20.58
2023-05-19T10:00:02.549Z,20.68
2023-05-19T10:01:02.578Z,20.75
2023-05-19T10:02:03.009Z,20.80
2023-05-19T10:03:02.553Z,20.89
2023-05-19T10:04:03.802Z,20.95
2023-05-19T10:05:02.552Z,21.00
2023-05-19T10:06:02.495Z,21.11
2023-05-19T10:07:02.492Z,21.18
2023-05-19T10:08:02.479Z,21.28
2023-05-19T10:09:02.450Z,21.38
2023-05-19T10:10:02.438Z,21.50
2023-05-19T10:11:02.443Z,21.62
2023-05-19T10:12:02.444Z,21.66
2023-05-19T10:13:02.436Z,21.69
2023-05-19T10:14:02.411Z,21.73
2023-05-19T10:15:02.412Z,21.78
2023-05-19T10:16:02.635Z,21.85
2023-05-19T10:17:02.462Z,21.93
2023-05-19T10:18:02.415Z,21.98
2023-05-19T10:19:02.461Z,22.03
2023-05-19T10:20:02.366Z,22.07
2023-05-19T10:21:02.334Z,22.09
2023-05-19T10:22:02.338Z,22.11
2023-05-19T10:23:02.333Z,22.07
2023-05-19T10:24:02.280Z,22.09
2023-05-19T10:25:02.297Z,22.13
2023-05-19T10:26:02.300Z,22.12
2023-05-19T10:27:02.290Z,22.09
2023-05-19T10:28:02.278Z,22.04
2023-05-19T10:29:02.264Z,22.01
2023-05-19T10:30:02.233Z,21.90
2023-05-19T10:31:02.244Z,21.80
2023-05-19T10:32:02.246Z,21.73
2023-05-19T10:33:02.242Z,21.65
2023-05-19T10:34:02.180Z,21.58
2023-05-19T10:35:02.184Z,21.58
2023-05-19T10:36:02.187Z,21.60
2023-05-19T10:37:02.151Z,21.65
2023-05-19T10:38:02.140Z,21.69
2023-05-19T10:39:02.146Z,21.75
2023-05-19T10:40:02.155Z,21.84
2023-05-19T10:41:02.128Z,21.93
2023-05-19T10:42:02.097Z,22.03
2023-05-19T10:43:02.090Z,22.13
2023-05-19T10:44:02.088Z,22.22
2023-05-19T10:45:02.095Z,22.34
2023-05-19T10:46:02.048Z,22.38
2023-05-19T10:47:02.169Z,22.52
2023-05-19T10:48:02.047Z,22.59
2023-05-19T10:49:02.035Z,22.59
2023-05-19T10:50:02.053Z,22.56
2023-05-19T10:51:02.027Z,22.56
2023-05-19T10:52:02.022Z,22.59
2023-05-19T10:53:01.996Z,22.64
2023-05-19T10:54:02.052Z,22.70
2023-05-19T10:55:01.996Z,22.76
2023-05-19T10:56:01.962Z,22.81
2023-05-19T10:57:01.955Z,22.85
2023-05-19T10:58:01.939Z,22.85
2023-05-19T10:59:01.966Z,22.83
2023-05-19T11:00:01.910Z,22.77
2023-05-19T11:01:01.912Z,22.67
2023-05-19T11:02:01.914Z,22.61
2023-05-19T11:03:01.923Z,22.56
2023-05-19T11:04:01.920Z,22.56
2023-05-19T11:05:01.873Z,22.48
2023-05-19T11:06:01.844Z,22.43
2023-05-19T11:07:01.850Z,22.44
2023-05-19T11:08:01.860Z,22.46
2023-05-19T11:09:01.900Z,22.51
2023-05-19T11:10:01.820Z,22.55
2023-05-19T11:11:01.820Z,22.61
2023-05-19T11:12:01.793Z,22.70
2023-05-19T11:13:01.798Z,22.76
2023-05-19T11:14:01.795Z,22.80
2023-05-19T11:15:01.776Z,22.85
2023-05-19T11:16:01.744Z,22.88
2023-05-19T11:17:01.814Z,22.96
2023-05-19T11:18:01.805Z,23.04
2023-05-19T11:19:01.798Z,23.11
2023-05-19T11:20:01.711Z,23.21
2023-05-19T11:21:01.705Z,23.29
2023-05-19T11:22:01.735Z,23.36
2023-05-19T11:23:01.761Z,23.45
2023-05-19T11:24:01.730Z,23.45
2023-05-19T11:25:01.651Z,23.45
2023-05-19T11:26:01.665Z,23.44
2023-05-19T11:27:01.647Z,23.41
2023-05-19T11:28:01.625Z,23.41
2023-05-19T11:29:01.609Z,23.41
2023-05-19T11:30:01.611Z,23.36
2023-05-19T11:31:01.585Z,23.29
2023-05-19T11:32:01.631Z,23.26
2023-05-19T11:33:01.596Z,23.23
2023-05-19T11:34:01.554Z,23.21
2023-05-19T11:35:01.561Z,23.17
2023-05-19T11:36:01.549Z,23.17
2023-05-19T11:37:01.543Z,23.18
2023-05-19T11:38:01.511Z,23.18
2023-05-19T11:39:01.513Z,23.23
2023-05-19T11:40:01.536Z,23.28
2023-05-19T11:41:01.502Z,23.31
2023-05-19T11:42:01.470Z,23.34
2023-05-19T11:43:01.468Z,23.37
2023-05-19T11:44:01.458Z,23.42
2023-05-19T11:45:01.458Z,23.46
2023-05-19T11:46:01.510Z,23.51
2023-05-19T11:47:01.422Z,23.52
2023-05-19T11:48:03.068Z,23.52
2023-05-19T11:49:01.405Z,23.54
2023-05-19T11:50:01.423Z,23.52
2023-05-19T11:51:01.422Z,23.52
2023-05-19T11:52:01.365Z,23.54
2023-05-19T11:53:01.680Z,23.55
2023-05-19T11:54:01.337Z,23.52
2023-05-19T11:55:01.363Z,23.49
2023-05-19T11:56:01.318Z,23.49
2023-05-19T11:57:01.318Z,23.49
2023-05-19T11:58:05.168Z,23.48
2023-05-19T11:59:01.306Z,23.48
2023-05-19T12:00:01.315Z,23.48
2023-05-19T12:01:01.269Z,23.49
2023-05-19T12:02:01.272Z,23.48
2023-05-19T12:03:01.362Z,23.51
2023-05-19T12:04:01.264Z,23.54
2023-05-19T12:05:01.297Z,23.55
2023-05-19T12:06:01.251Z,23.56
2023-05-19T12:07:01.204Z,23.61
2023-05-19T12:08:01.203Z,23.63
2023-05-19T12:09:01.199Z,23.67
2023-05-19T12:10:01.216Z,23.69
2023-05-19T12:11:01.177Z,23.70
2023-05-19T12:12:01.182Z,23.70
2023-05-19T12:13:01.146Z,23.67
2023-05-19T12:14:01.169Z,23.60
2023-05-19T12:15:01.121Z,23.45
2023-05-19T12:16:01.149Z,23.34
2023-05-19T12:17:01.113Z,23.23
2023-05-19T12:18:01.127Z,23.17
2023-05-19T12:19:01.157Z,23.13
2023-05-19T12:20:01.072Z,23.06
2023-05-19T12:21:01.079Z,23.03
2023-05-19T12:22:02.228Z,23.03
2023-05-19T12:23:01.204Z,23.03
2023-05-19T12:24:01.064Z,23.01
2023-05-19T12:25:01.025Z,22.98
2023-05-19T12:26:01.007Z,22.96
2023-05-19T12:27:00.999Z,22.96
2023-05-19T12:28:01.033Z,22.95
2023-05-19T12:29:00.986Z,22.91
2023-05-19T12:30:00.968Z,22.92
2023-05-19T12:31:00.955Z,22.88
2023-05-19T12:32:01.025Z,22.85
2023-05-19T12:33:00.985Z,22.85
2023-05-19T12:34:00.922Z,22.85
2023-05-19T12:35:00.919Z,22.80
2023-05-19T12:36:00.896Z,22.77
2023-05-19T12:37:00.965Z,22.74
2023-05-19T12:38:00.879Z,22.73
2023-05-19T12:39:00.879Z,22.71
2023-05-19T12:40:00.869Z,22.71
2023-05-19T12:41:00.847Z,22.70
2023-05-19T12:42:00.887Z,22.70
2023-05-19T12:43:00.830Z,22.68
2023-05-19T12:44:00.810Z,22.64
2023-05-19T12:45:02.962Z,22.64
2023-05-19T12:46:00.880Z,22.66
2023-05-19T12:47:00.803Z,22.62
2023-05-19T12:48:00.846Z,22.58
2023-05-19T12:49:00.799Z,22.55
2023-05-19T12:50:00.765Z,22.49
2023-05-19T12:51:00.787Z,22.44
2023-05-19T12:52:02.649Z,22.41
2023-05-19T12:53:00.728Z,22.40